This is the latest recevied weather packets stored in our database for station/object KB2UHF-8. If no packets are shown the sender has not sent any weather packets the latest 10 day(s).
| Time | Temp. | Humidity | Pressure | Rain* | Wind** | Luminosity | Snow |
|---|---|---|---|---|---|---|---|
| 1777668317 | 9.44° C | 41% | 1016.8 hPa | 0 mm | - | 447 W/m² | - |
| 1777667718 | 9.44° C | 43% | 1016.8 hPa | 0 mm | - | 256 W/m² | - |
| 1777665917 | 9.44° C | 40% | 1016.8 hPa | 0 mm | - | 725 W/m² | - |
| 1777664717 | 10° C | 36% | 1017 hPa | 0 mm | - | 997 W/m² | - |
| 1777663516 | 10° C | 37% | 1016.9 hPa | 0 mm | - | 1075 W/m² | - |
| 1777662317 | 9.44° C | 45% | 1016.9 hPa | 0 mm | - | 986 W/m² | - |
| 1777660516 | 8.89° C | 38% | 1016.8 hPa | 0 mm | - | 1043 W/m² | - |
| 1777659916 | 8.89° C | 46% | 1016.8 hPa | 0 mm | - | 239 W/m² | - |
| 1777652136 | 7.78° C | 48% | 1017.2 hPa | 0 mm | - | 401 W/m² | - |
| 1777647316 | 7.22° C | 53% | 1017.4 hPa | 0 mm | - | 712 W/m² | - |
| 1777641316 | 3.89° C | 73% | 1017.4 hPa | 0 mm | - | 449 W/m² | - |
| 1777638916 | 2.22° C | 74% | 1017.2 hPa | 0 mm | - | 144 W/m² | - |
| 1777636516 | 1.11° C | 80% | 1016.9 hPa | 0 mm | - | 95 W/m² | - |
| 1777633516 | -1.67° C | 87% | 1016.3 hPa | 0 mm | - | 7 W/m² | - |
| 1777632316 | -2.22° C | 87% | 1016.3 hPa | 0 mm | - | 0 W/m² | - |
| 1777631716 | -1.67° C | 86% | 1016.2 hPa | 0 mm | - | 0 W/m² | - |
| 1777629916 | -1.11° C | 82% | 1015.9 hPa | 0 mm | - | 0 W/m² | - |
| 1777628116 | 0° C | 75% | 1016.2 hPa | 0 mm | - | 0 W/m² | - |
| 1777626316 | 0° C | 75% | 1016.3 hPa | 0 mm | - | 0 W/m² | - |
| 1777614316 | 2.78° C | 65% | 1016.4 hPa | 0 mm | - | 0 W/m² | - |
| 1777613135 | 2.78° C | 64% | 1016.4 hPa | 0 mm | - | 0 W/m² | - |
| 1777611316 | 3.89° C | 62% | 1016.3 hPa | 0 mm | - | 0 W/m² | - |
| 1777608316 | 4.44° C | 60% | 1016.4 hPa | 0 mm | - | 0 W/m² | - |
| 1777604116 | 5.56° C | 60% | 1016.3 hPa | 0 mm | - | 0 W/m² | - |
| 1777599936 | 7.22° C | 54% | 1015.3 hPa | 0 mm | - | 0 W/m² | - |
* Rain latest hour (hover to see other rain measurements)
** Current wind speed in m/s (hover to see current wind gust speed)